createdAt,value
2019-04-30T00:01:55.560Z,14.14
2019-04-30T00:04:29.804Z,14.12
2019-04-30T00:07:00.593Z,14.13
2019-04-30T00:09:30.873Z,14.11
2019-04-30T00:12:01.436Z,14.09
2019-04-30T00:14:37.306Z,14.07
2019-04-30T00:17:03.402Z,14.07
2019-04-30T00:19:33.245Z,14.07
2019-04-30T00:22:03.221Z,14.06
2019-04-30T00:24:33.149Z,14.05
2019-04-30T00:27:04.994Z,14.04
2019-04-30T00:29:35.693Z,14.04
2019-04-30T00:32:07.952Z,14.04
2019-04-30T00:34:39.339Z,14.04
2019-04-30T00:37:13.865Z,14.01
2019-04-30T00:39:44.371Z,14.00
2019-04-30T00:42:12.195Z,13.98
2019-04-30T00:44:41.981Z,13.99
2019-04-30T00:47:11.986Z,13.98
2019-04-30T00:49:41.920Z,13.99
2019-04-30T00:52:11.855Z,13.97
2019-04-30T00:54:41.714Z,13.98
2019-04-30T00:57:12.008Z,13.97
2019-04-30T00:59:44.626Z,13.96
2019-04-30T01:02:31.683Z,13.95
2019-04-30T01:05:05.181Z,13.96
2019-04-30T01:07:29.975Z,13.97
2019-04-30T01:09:59.839Z,13.95
2019-04-30T01:12:36.374Z,13.95
2019-04-30T01:15:06.549Z,13.93
2019-04-30T01:17:35.053Z,13.92
2019-04-30T01:20:05.984Z,13.89
2019-04-30T01:22:36.230Z,13.89
2019-04-30T01:25:11.701Z,13.87
2019-04-30T01:27:39.526Z,13.84
2019-04-30T01:30:13.244Z,13.83
2019-04-30T01:32:42.518Z,13.82
2019-04-30T01:35:12.488Z,13.80
2019-04-30T01:37:42.404Z,13.78
2019-04-30T01:40:13.951Z,13.75
2019-04-30T01:42:48.587Z,13.71
2019-04-30T01:45:15.615Z,13.71
2019-04-30T01:47:45.745Z,13.67
2019-04-30T01:50:15.998Z,13.62
2019-04-30T01:52:54.968Z,13.60
2019-04-30T01:55:41.433Z,13.55
2019-04-30T01:58:30.182Z,13.54
2019-04-30T02:01:03.797Z,13.56
2019-04-30T02:03:33.633Z,13.58
2019-04-30T02:06:03.572Z,13.57
2019-04-30T02:08:33.786Z,13.55
2019-04-30T02:11:03.722Z,13.56
2019-04-30T02:13:34.586Z,13.55
2019-04-30T02:16:04.672Z,13.56
2019-04-30T02:18:34.608Z,13.53
2019-04-30T02:21:04.598Z,13.50
2019-04-30T02:23:34.373Z,13.43
2019-04-30T02:26:04.310Z,13.44
2019-04-30T02:28:34.236Z,13.45
2019-04-30T02:31:04.129Z,13.42
2019-04-30T02:33:35.714Z,13.33
2019-04-30T02:36:30.989Z,13.34
2019-04-30T02:39:02.759Z,13.34
2019-04-30T02:41:34.394Z,13.33
2019-04-30T02:44:05.741Z,13.34
2019-04-30T02:46:40.498Z,13.32
2019-04-30T02:49:10.923Z,13.25
2019-04-30T02:51:42.471Z,13.27
2019-04-30T02:54:24.007Z,13.26
2019-04-30T02:57:13.532Z,13.30
2019-04-30T03:00:01.686Z,13.24
2019-04-30T03:02:33.275Z,13.22
2019-04-30T03:05:03.514Z,13.21
2019-04-30T03:07:33.450Z,13.22
2019-04-30T03:10:03.341Z,13.22
2019-04-30T03:12:33.972Z,13.22
2019-04-30T03:15:04.204Z,13.22
2019-04-30T03:17:50.369Z,13.21
2019-04-30T03:20:36.393Z,13.22
2019-04-30T03:23:06.317Z,13.24
2019-04-30T03:25:36.531Z,13.27
2019-04-30T03:28:06.511Z,13.22
2019-04-30T03:30:41.378Z,13.21
2019-04-30T03:33:12.212Z,13.20
2019-04-30T03:35:42.224Z,13.19
2019-04-30T03:38:12.119Z,13.20
2019-04-30T03:40:41.999Z,13.21
2019-04-30T03:43:12.256Z,13.18
2019-04-30T03:45:42.047Z,13.17
2019-04-30T03:48:11.966Z,13.18
2019-04-30T03:50:53.232Z,13.20
2019-04-30T03:53:13.572Z,13.21
2019-04-30T03:55:43.777Z,13.22
2019-04-30T03:58:13.705Z,13.20
2019-04-30T04:00:54.216Z,13.22
2019-04-30T04:03:24.169Z,13.22
2019-04-30T04:06:12.523Z,13.23
2019-04-30T04:09:04.427Z,13.24
2019-04-30T04:11:39.688Z,13.24
2019-04-30T04:14:10.050Z,13.27
2019-04-30T04:16:41.091Z,13.30
2019-04-30T04:19:11.427Z,13.30
2019-04-30T04:21:41.322Z,13.33
2019-04-30T04:24:11.309Z,13.35
2019-04-30T04:26:44.595Z,13.38
2019-04-30T04:29:14.390Z,13.40
2019-04-30T04:31:44.266Z,13.42
2019-04-30T04:34:14.229Z,13.44
2019-04-30T04:36:44.160Z,13.45
2019-04-30T04:39:14.734Z,13.47
2019-04-30T04:41:44.636Z,13.45
2019-04-30T04:44:14.598Z,13.47
2019-04-30T04:46:44.557Z,13.48
2019-04-30T04:49:14.751Z,13.43
2019-04-30T04:51:44.709Z,13.37
2019-04-30T04:54:14.617Z,13.34
2019-04-30T04:56:44.594Z,13.31
2019-04-30T04:59:14.545Z,13.30
2019-04-30T05:01:44.411Z,13.29
2019-04-30T05:04:14.271Z,13.30
2019-04-30T05:06:44.452Z,13.32
2019-04-30T05:09:15.275Z,13.35
2019-04-30T05:11:45.266Z,13.40
2019-04-30T05:14:15.181Z,13.41
2019-04-30T05:16:45.231Z,13.43
2019-04-30T05:19:15.165Z,13.44
2019-04-30T05:21:45.099Z,13.47
2019-04-30T05:24:15.237Z,13.48
2019-04-30T05:26:45.183Z,13.50
2019-04-30T05:29:15.421Z,13.51
2019-04-30T05:31:45.368Z,13.53
2019-04-30T05:34:15.230Z,13.52
2019-04-30T05:36:45.033Z,13.53
2019-04-30T05:39:14.972Z,13.56
2019-04-30T05:41:44.841Z,13.54
2019-04-30T05:44:14.790Z,13.55
2019-04-30T05:46:44.654Z,13.58
2019-04-30T05:49:14.528Z,13.60
2019-04-30T05:51:53.542Z,13.62
2019-04-30T05:54:18.983Z,13.64
2019-04-30T05:56:50.127Z,13.63
2019-04-30T05:59:20.687Z,13.62
2019-04-30T06:01:50.950Z,13.62
2019-04-30T06:04:20.928Z,13.61
2019-04-30T06:06:50.905Z,13.61
2019-04-30T06:09:33.986Z,13.64
2019-04-30T06:12:22.273Z,13.64
2019-04-30T06:14:56.348Z,13.64
2019-04-30T06:17:29.390Z,13.67
2019-04-30T06:19:59.416Z,13.67
2019-04-30T06:22:29.812Z,13.72
2019-04-30T06:24:59.777Z,13.75
2019-04-30T06:27:29.997Z,13.76
2019-04-30T06:29:59.949Z,13.77
2019-04-30T06:32:30.007Z,13.74
2019-04-30T06:35:00.067Z,13.75
2019-04-30T06:37:31.626Z,13.76
2019-04-30T06:40:01.684Z,13.76
2019-04-30T06:42:31.615Z,13.81
2019-04-30T06:45:01.918Z,13.87
2019-04-30T06:47:33.436Z,13.85
2019-04-30T06:50:03.535Z,13.88
2019-04-30T06:52:33.514Z,13.84
2019-04-30T06:55:03.934Z,13.82
2019-04-30T06:57:34.139Z,13.83
2019-04-30T07:00:05.043Z,13.85
2019-04-30T07:02:35.238Z,13.83
2019-04-30T07:05:05.621Z,13.83
2019-04-30T07:07:39.228Z,13.84
2019-04-30T07:10:29.474Z,13.86
2019-04-30T07:13:15.150Z,13.91
2019-04-30T07:15:45.051Z,13.96
2019-04-30T07:18:15.311Z,14.01
2019-04-30T07:20:45.181Z,14.04
2019-04-30T07:23:14.973Z,14.05
2019-04-30T07:25:44.909Z,14.06
2019-04-30T07:28:15.403Z,14.08
2019-04-30T07:30:45.590Z,14.04
2019-04-30T07:33:15.410Z,14.07
2019-04-30T07:35:45.184Z,14.18
2019-04-30T07:38:14.978Z,14.19
2019-04-30T07:40:44.860Z,14.20
2019-04-30T07:43:14.814Z,14.21
2019-04-30T07:45:44.782Z,14.22
2019-04-30T07:48:14.783Z,14.26
2019-04-30T07:50:45.817Z,14.24
2019-04-30T07:53:15.849Z,14.27
2019-04-30T07:55:45.743Z,14.27
2019-04-30T07:58:15.602Z,14.30
2019-04-30T08:00:45.821Z,14.28
2019-04-30T08:03:32.029Z,14.26
2019-04-30T08:06:02.513Z,14.32
2019-04-30T08:08:32.836Z,14.34
2019-04-30T08:11:02.781Z,14.37
2019-04-30T08:13:33.377Z,14.45
2019-04-30T08:16:03.843Z,14.51
2019-04-30T08:18:33.719Z,14.46
2019-04-30T08:21:03.655Z,14.43
2019-04-30T08:23:37.126Z,14.48
2019-04-30T08:26:05.546Z,14.50
2019-04-30T08:28:38.707Z,14.56
2019-04-30T08:31:09.271Z,14.61
2019-04-30T08:33:40.231Z,14.66
2019-04-30T08:36:10.461Z,14.69
2019-04-30T08:38:40.349Z,14.67
2019-04-30T08:41:10.294Z,14.68
2019-04-30T08:43:40.092Z,14.67
2019-04-30T08:46:10.022Z,14.64
2019-04-30T08:48:50.335Z,14.60
2019-04-30T08:51:13.921Z,14.61
2019-04-30T08:53:44.115Z,14.63
2019-04-30T08:56:15.432Z,14.65
2019-04-30T08:58:45.385Z,14.70
2019-04-30T09:01:15.345Z,14.68
2019-04-30T09:03:45.407Z,14.70
2019-04-30T09:06:26.321Z,14.71
2019-04-30T09:08:59.380Z,14.75
2019-04-30T09:11:38.459Z,14.72
2019-04-30T09:14:03.042Z,14.74
2019-04-30T09:16:32.933Z,14.70
2019-04-30T09:19:03.193Z,14.73
2019-04-30T09:21:33.149Z,14.77
2019-04-30T09:24:03.039Z,14.80
2019-04-30T09:26:32.990Z,14.86
2019-04-30T09:29:03.168Z,14.90
2019-04-30T09:31:33.114Z,14.90
2019-04-30T09:34:14.275Z,14.91
2019-04-30T09:36:35.168Z,14.91
2019-04-30T09:39:08.781Z,14.92
2019-04-30T09:41:40.989Z,14.90
2019-04-30T09:44:10.654Z,14.85
2019-04-30T09:46:40.634Z,14.83
2019-04-30T09:49:10.461Z,14.86
2019-04-30T09:51:40.843Z,14.85
2019-04-30T09:54:12.686Z,14.90
2019-04-30T09:56:42.682Z,14.96
2019-04-30T09:59:12.566Z,15.02
2019-04-30T10:01:42.510Z,15.08
2019-04-30T10:04:12.985Z,15.19
2019-04-30T10:06:43.067Z,15.24
2019-04-30T10:09:14.602Z,15.30
2019-04-30T10:11:52.919Z,15.33
2019-04-30T10:14:22.865Z,15.36
2019-04-30T10:17:26.901Z,15.39
2019-04-30T10:19:56.699Z,15.37
2019-04-30T10:22:26.696Z,15.41
2019-04-30T10:24:56.707Z,15.47
2019-04-30T10:27:29.185Z,15.54
2019-04-30T10:29:59.376Z,15.63
2019-04-30T10:32:30.118Z,15.73
2019-04-30T10:35:00.507Z,15.86
2019-04-30T10:37:30.800Z,15.94
2019-04-30T10:40:00.826Z,16.10
2019-04-30T10:42:34.581Z,16.21
2019-04-30T10:45:03.502Z,16.33
2019-04-30T10:47:33.456Z,16.45
2019-04-30T10:50:05.306Z,16.54
2019-04-30T10:52:35.249Z,16.66
2019-04-30T10:55:05.354Z,16.69
2019-04-30T10:57:35.311Z,16.65
2019-04-30T11:00:07.861Z,16.50
2019-04-30T11:02:38.683Z,16.60
2019-04-30T11:05:09.070Z,16.73
2019-04-30T11:07:39.083Z,16.87
2019-04-30T11:10:09.800Z,17.01
2019-04-30T11:12:39.839Z,17.10
2019-04-30T11:15:11.063Z,17.20
2019-04-30T11:17:41.337Z,17.17
2019-04-30T11:20:11.976Z,17.15
2019-04-30T11:22:42.380Z,17.11
2019-04-30T11:25:12.838Z,17.20
2019-04-30T11:27:43.597Z,17.37
2019-04-30T11:30:21.438Z,17.66
2019-04-30T11:32:46.485Z,17.82
2019-04-30T11:35:18.487Z,18.02
2019-04-30T11:37:48.564Z,18.23
2019-04-30T11:40:34.376Z,18.45
2019-04-30T11:42:59.094Z,18.64
2019-04-30T11:46:19.655Z,18.84
2019-04-30T11:48:50.881Z,18.98
2019-04-30T11:51:22.568Z,19.23
2019-04-30T11:53:52.540Z,19.38
2019-04-30T11:56:22.611Z,19.44
2019-04-30T11:58:52.574Z,19.35
2019-04-30T12:01:24.898Z,19.48
2019-04-30T12:03:56.234Z,19.66
2019-04-30T12:06:26.185Z,19.79
2019-04-30T12:09:20.110Z,19.88
2019-04-30T12:11:50.697Z,20.04
2019-04-30T12:14:20.805Z,20.21
2019-04-30T12:16:50.867Z,20.28
2019-04-30T12:19:21.741Z,20.27
2019-04-30T12:21:51.690Z,20.27
2019-04-30T12:24:21.566Z,20.46
2019-04-30T12:26:51.526Z,20.61
2019-04-30T12:29:21.472Z,20.63
2019-04-30T12:31:54.391Z,20.59
2019-04-30T12:34:24.203Z,20.49
2019-04-30T12:36:54.291Z,20.51
2019-04-30T12:39:24.152Z,20.66
2019-04-30T12:41:54.050Z,20.77
2019-04-30T12:44:43.452Z,20.89
2019-04-30T12:47:13.335Z,21.01
2019-04-30T12:49:55.883Z,21.22
2019-04-30T12:52:46.336Z,21.34
2019-04-30T12:55:53.941Z,21.35
2019-04-30T12:58:23.888Z,21.42
2019-04-30T13:01:04.030Z,21.42
2019-04-30T13:03:34.355Z,21.59
2019-04-30T13:06:05.233Z,21.78
2019-04-30T13:08:36.308Z,21.92
2019-04-30T13:11:12.088Z,22.06
2019-04-30T13:13:40.909Z,22.19
2019-04-30T13:16:12.313Z,22.16
2019-04-30T13:18:42.268Z,22.18
2019-04-30T13:21:12.168Z,22.25
2019-04-30T13:23:42.191Z,22.28
2019-04-30T13:26:13.409Z,22.31
2019-04-30T13:28:53.843Z,22.22
2019-04-30T13:31:23.739Z,22.22
2019-04-30T13:34:01.309Z,22.34
2019-04-30T13:36:30.863Z,22.44
2019-04-30T13:39:09.438Z,22.33
2019-04-30T13:41:46.176Z,22.19
2019-04-30T13:44:19.878Z,21.78
2019-04-30T13:46:53.114Z,21.78
2019-04-30T13:49:22.983Z,21.90
2019-04-30T13:51:52.978Z,22.04
2019-04-30T13:57:13.517Z,22.20
2019-04-30T13:59:43.882Z,21.98
2019-04-30T14:02:14.026Z,21.85
2019-04-30T14:05:02.078Z,21.62
2019-04-30T14:07:59.824Z,21.62
2019-04-30T14:10:33.191Z,21.83
2019-04-30T14:13:05.462Z,22.00
2019-04-30T14:15:35.869Z,21.97
2019-04-30T14:18:06.203Z,21.94
2019-04-30T14:20:36.408Z,21.82
2019-04-30T14:23:08.510Z,21.76
2019-04-30T14:25:39.262Z,21.75
2019-04-30T14:28:09.552Z,21.60
2019-04-30T14:30:40.641Z,21.56
2019-04-30T14:33:22.710Z,21.56
2019-04-30T14:35:42.666Z,21.69
2019-04-30T14:38:13.054Z,21.80
2019-04-30T14:40:43.507Z,21.85
2019-04-30T14:43:20.149Z,21.95
2019-04-30T14:46:10.307Z,22.12
2019-04-30T14:48:47.073Z,22.11
2019-04-30T14:51:18.923Z,22.11
2019-04-30T14:54:06.517Z,22.17
2019-04-30T14:56:42.777Z,22.10
2019-04-30T14:59:39.007Z,22.02
2019-04-30T15:02:43.413Z,21.76
2019-04-30T15:05:14.919Z,21.76
2019-04-30T15:07:44.882Z,21.69
2019-04-30T15:10:16.153Z,21.68
2019-04-30T15:12:47.002Z,21.70
2019-04-30T15:15:19.086Z,21.63
2019-04-30T15:17:49.303Z,21.62
2019-04-30T15:20:19.776Z,21.61
2019-04-30T15:23:10.621Z,21.63
2019-04-30T15:25:40.624Z,21.64
2019-04-30T15:28:11.809Z,21.72
2019-04-30T15:30:42.215Z,21.76
2019-04-30T15:33:25.902Z,21.70
2019-04-30T15:35:55.803Z,21.70
2019-04-30T15:38:44.654Z,21.69
2019-04-30T15:41:14.898Z,21.80
2019-04-30T15:43:44.949Z,21.78
2019-04-30T15:46:15.614Z,21.75
2019-04-30T15:48:46.534Z,21.79
2019-04-30T15:51:16.537Z,21.80
2019-04-30T15:53:46.489Z,21.79
2019-04-30T15:56:16.473Z,21.52
2019-04-30T15:59:08.894Z,21.52
2019-04-30T16:01:39.575Z,21.55
2019-04-30T16:04:10.733Z,21.64
2019-04-30T16:06:40.689Z,21.90
2019-04-30T16:09:13.417Z,22.03
2019-04-30T16:11:49.749Z,21.98
2019-04-30T16:14:26.677Z,21.97
2019-04-30T16:17:05.261Z,21.99
2019-04-30T16:19:35.508Z,21.98
2019-04-30T16:22:06.807Z,21.84
2019-04-30T16:24:38.553Z,21.84
2019-04-30T16:27:09.751Z,21.81
2019-04-30T16:29:40.723Z,21.80
2019-04-30T16:32:11.340Z,21.72
2019-04-30T16:34:41.257Z,21.70
2019-04-30T16:37:11.551Z,21.70
2019-04-30T16:39:41.839Z,21.74
2019-04-30T16:42:12.140Z,21.76
2019-04-30T16:44:42.189Z,21.73
2019-04-30T16:47:16.034Z,21.78
2019-04-30T16:49:44.321Z,21.82
2019-04-30T16:52:14.647Z,21.80
2019-04-30T16:54:44.687Z,21.84
2019-04-30T16:57:14.852Z,21.88
2019-04-30T16:59:44.856Z,21.78
2019-04-30T17:02:16.767Z,21.78
2019-04-30T17:05:05.764Z,21.60
2019-04-30T17:08:01.860Z,21.50
2019-04-30T17:10:41.337Z,21.43
2019-04-30T17:13:23.247Z,21.43
2019-04-30T17:15:56.353Z,21.52
2019-04-30T17:18:29.743Z,21.44
2019-04-30T17:20:59.823Z,21.48
2019-04-30T17:23:29.803Z,21.47
2019-04-30T17:26:00.275Z,21.35
2019-04-30T17:28:30.392Z,21.23
2019-04-30T17:31:04.971Z,21.11
2019-04-30T17:33:34.865Z,20.77
2019-04-30T17:36:05.236Z,20.77
2019-04-30T17:38:35.261Z,20.68
2019-04-30T17:41:05.515Z,20.55
2019-04-30T17:43:35.688Z,20.38
2019-04-30T17:46:05.965Z,20.25
2019-04-30T17:48:36.125Z,20.17
2019-04-30T17:51:06.445Z,20.03
2019-04-30T17:53:38.910Z,19.74
2019-04-30T17:56:09.184Z,19.65
2019-04-30T17:58:39.326Z,19.53
2019-04-30T18:01:10.024Z,19.36
2019-04-30T18:03:40.504Z,19.17
2019-04-30T18:06:11.024Z,19.07
2019-04-30T18:08:41.724Z,19.02
2019-04-30T18:11:11.758Z,18.93
2019-04-30T18:13:42.570Z,18.83
2019-04-30T18:16:12.659Z,18.78
2019-04-30T18:19:13.914Z,18.74
2019-04-30T18:21:49.156Z,18.73
2019-04-30T18:24:31.820Z,18.49
2019-04-30T18:27:08.365Z,18.43
2019-04-30T18:29:38.468Z,18.36
2019-04-30T18:32:09.365Z,18.30
2019-04-30T18:34:41.049Z,18.28
2019-04-30T18:37:11.495Z,18.19
2019-04-30T18:39:41.936Z,18.06
2019-04-30T18:42:12.428Z,17.99
2019-04-30T18:44:42.683Z,17.97
2019-04-30T18:47:13.486Z,17.98
2019-04-30T18:49:43.621Z,17.93
2019-04-30T18:52:13.905Z,17.88
2019-04-30T18:54:45.054Z,17.86
2019-04-30T18:57:15.165Z,17.81
2019-04-30T18:59:45.271Z,17.79
2019-04-30T19:02:15.224Z,17.80
2019-04-30T19:04:45.099Z,17.81
2019-04-30T19:07:38.556Z,17.77
2019-04-30T19:10:34.052Z,17.73
2019-04-30T19:13:41.240Z,17.68
2019-04-30T19:16:30.173Z,17.57
2019-04-30T19:19:09.457Z,17.51
2019-04-30T19:21:40.953Z,17.41
2019-04-30T19:24:10.902Z,17.39
2019-04-30T19:26:40.946Z,17.25
2019-04-30T19:29:11.368Z,17.22
2019-04-30T19:31:41.290Z,17.18
2019-04-30T19:34:11.348Z,17.10
2019-04-30T19:36:41.738Z,17.08
2019-04-30T19:39:13.267Z,17.07
2019-04-30T19:41:43.444Z,17.03
2019-04-30T19:44:14.253Z,16.95
2019-04-30T19:46:44.199Z,16.95
2019-04-30T19:49:14.902Z,16.93
2019-04-30T19:51:45.945Z,16.91
2019-04-30T19:54:15.808Z,16.84
2019-04-30T19:56:46.283Z,16.85
2019-04-30T19:59:16.175Z,16.86
2019-04-30T20:01:46.405Z,16.83
2019-04-30T20:04:16.273Z,16.80
2019-04-30T20:06:48.588Z,16.77
2019-04-30T20:09:19.387Z,16.73
2019-04-30T20:11:49.435Z,16.72
2019-04-30T20:14:19.350Z,16.67
2019-04-30T20:16:49.297Z,16.64
2019-04-30T20:19:19.215Z,16.59
2019-04-30T20:21:53.617Z,16.57
2019-04-30T20:24:21.254Z,16.51
2019-04-30T20:27:03.573Z,16.52
2019-04-30T20:29:22.570Z,16.50
2019-04-30T20:31:52.858Z,16.48
2019-04-30T20:34:22.818Z,16.45
2019-04-30T20:36:52.767Z,16.40
2019-04-30T20:39:49.337Z,16.37
2019-04-30T20:42:19.672Z,16.28
2019-04-30T20:44:49.612Z,16.15
2019-04-30T20:47:21.039Z,16.02
2019-04-30T20:49:53.172Z,15.98
2019-04-30T20:52:23.315Z,15.93
2019-04-30T20:54:53.226Z,15.87
2019-04-30T20:57:24.176Z,15.86
2019-04-30T20:59:54.570Z,15.83
2019-04-30T21:02:24.455Z,15.81
2019-04-30T21:04:54.329Z,15.81
2019-04-30T21:07:24.932Z,15.81
2019-04-30T21:09:55.172Z,15.81
2019-04-30T21:12:25.174Z,15.81
2019-04-30T21:14:55.106Z,15.80
2019-04-30T21:17:25.063Z,15.75
2019-04-30T21:19:54.954Z,15.77
2019-04-30T21:22:24.825Z,15.77
2019-04-30T21:24:54.789Z,15.76
2019-04-30T21:27:24.674Z,15.73
2019-04-30T21:29:54.535Z,15.69
2019-04-30T21:32:46.237Z,15.66
2019-04-30T21:35:34.974Z,15.59
2019-04-30T21:38:05.289Z,15.53
2019-04-30T21:40:36.717Z,15.46
2019-04-30T21:43:06.797Z,15.44
2019-04-30T21:45:36.671Z,15.44
2019-04-30T21:48:06.618Z,15.42
2019-04-30T21:50:36.550Z,15.39
2019-04-30T21:53:06.438Z,15.40
2019-04-30T21:55:36.363Z,15.38
2019-04-30T21:58:06.237Z,15.35
2019-04-30T22:00:54.623Z,15.32
2019-04-30T22:03:26.199Z,15.30
2019-04-30T22:05:56.144Z,15.23
2019-04-30T22:08:26.118Z,15.20
2019-04-30T22:10:56.278Z,15.17
2019-04-30T22:13:26.358Z,15.14
2019-04-30T22:15:56.243Z,15.15
2019-04-30T22:18:26.195Z,15.15
2019-04-30T22:20:56.354Z,15.14
2019-04-30T22:23:26.457Z,15.12
2019-04-30T22:25:56.420Z,15.13
2019-04-30T22:28:26.403Z,15.11
2019-04-30T22:30:56.272Z,15.09
2019-04-30T22:33:26.167Z,15.07
2019-04-30T22:36:21.146Z,15.06
2019-04-30T22:39:29.896Z,14.99
2019-04-30T22:42:20.400Z,14.89
2019-04-30T22:44:50.930Z,14.87
2019-04-30T22:47:20.808Z,14.86
2019-04-30T22:49:50.759Z,14.86
2019-04-30T22:52:21.946Z,14.83
2019-04-30T22:54:53.016Z,14.81
2019-04-30T22:57:22.895Z,14.81
2019-04-30T22:59:52.846Z,14.76
2019-04-30T23:02:50.680Z,14.75
2019-04-30T23:05:20.759Z,14.70
2019-04-30T23:07:50.983Z,14.67
2019-04-30T23:10:20.932Z,14.64
2019-04-30T23:12:51.212Z,14.61
2019-04-30T23:15:21.926Z,14.57
2019-04-30T23:17:51.879Z,14.55
2019-04-30T23:20:22.203Z,14.53
2019-04-30T23:22:52.061Z,14.50
2019-04-30T23:25:21.909Z,14.50
2019-04-30T23:27:51.768Z,14.49
2019-04-30T23:30:21.655Z,14.45
2019-04-30T23:32:51.815Z,14.38
2019-04-30T23:35:21.763Z,14.38
2019-04-30T23:37:51.705Z,14.35
2019-04-30T23:40:31.077Z,14.33
2019-04-30T23:43:01.229Z,14.32
2019-04-30T23:45:31.424Z,14.30
2019-04-30T23:48:01.216Z,14.27
2019-04-30T23:50:31.161Z,14.24
2019-04-30T23:53:01.993Z,14.23
2019-04-30T23:55:32.173Z,14.16
2019-04-30T23:58:02.030Z,14.13
